Time;durP1;ratioP1;P1;durP2;ratioP2;P2;SDS_P1;SDS_P2;PMS_P1;PMS_P2;Temp;Humidity;BMP_temperature;BMP_pressure;BME280_temperature;BME280_humidity;BME280_pressure;Samples;Min_cycle;Max_cycle;Signal;HPM_P1;HPM_P2
2022/08/18 00:02:14;;;;;;;0.00;0.00;;;;;;;;;;5069489;28;20251;-69
2022/08/18 00:04:41;;;;;;;0.00;0.00;;;;;;;;;;5063656;28;20224;-68
2022/08/18 00:07:08;;;;;;;0.00;0.00;;;;;;;;;;5069422;28;20239;-68
2022/08/18 00:09:35;;;;;;;0.00;0.00;;;;;;;;;;5064326;28;20214;-69
2022/08/18 00:12:03;;;;;;;0.00;0.00;;;;;;;;;;5068917;28;20318;-69
2022/08/18 00:14:30;;;;;;;0.00;0.00;;;;;;;;;;5064423;28;20500;-69
2022/08/18 00:16:57;;;;;;;0.00;0.00;;;;;;;;;;5068066;28;20431;-68
2022/08/18 00:19:25;;;;;;;0.00;0.00;;;;;;;;;;5064570;28;20370;-69
2022/08/18 00:21:51;;;;;;;0.00;0.00;;;;;;;;;;5067308;28;20235;-70
2022/08/18 00:24:17;;;;;;;0.00;0.00;;;;;;;;;;5065499;28;20323;-68
2022/08/18 00:26:44;;;;;;;0.00;0.00;;;;;;;;;;5066391;28;20281;-68
2022/08/18 00:29:10;;;;;;;0.00;0.00;;;;;;;;;;5066370;28;20223;-68
2022/08/18 00:31:37;;;;;;;0.00;0.00;;;;;;;;;;5065182;28;20307;-67
2022/08/18 00:34:05;;;;;;;0.00;0.00;;;;;;;;;;5067451;28;20241;-68
2022/08/18 00:36:33;;;;;;;0.00;0.00;;;;;;;;;;5064546;28;20239;-70
2022/08/18 00:38:59;;;;;;;0.00;0.00;;;;;;;;;;5067772;28;20459;-68
2022/08/18 00:41:26;;;;;;;0.00;0.00;;;;;;;;;;5063809;28;20261;-68
2022/08/18 00:43:54;;;;;;;0.00;0.00;;;;;;;;;;5068239;28;20291;-69
2022/08/18 00:46:22;;;;;;;0.00;0.00;;;;;;;;;;5063076;28;20251;-68
2022/08/18 00:48:49;;;;;;;0.00;0.00;;;;;;;;;;5069020;28;20387;-68
2022/08/18 00:51:21;;;;;;;0.00;0.00;;;;;;;;;;5061125;28;20240;-69
2022/08/18 00:53:50;;;;;;;0.00;0.00;;;;;;;;;;5069159;28;20208;-68
2022/08/18 00:56:19;;;;;;;0.00;0.00;;;;;;;;;;5062034;28;20242;-68
2022/08/18 00:58:47;;;;;;;0.00;0.00;;;;;;;;;;5068727;28;20204;-68
2022/08/18 01:01:15;;;;;;;0.00;0.00;;;;;;;;;;5061653;28;20527;-68
2022/08/18 01:03:43;;;;;;;0.00;0.00;;;;;;;;;;5069585;28;20204;-69
2022/08/18 01:06:13;;;;;;;0.00;0.00;;;;;;;;;;5060997;28;20314;-69
2022/08/18 01:08:41;;;;;;;0.00;0.00;;;;;;;;;;5069766;28;20222;-68
2022/08/18 01:11:08;;;;;;;0.00;0.00;;;;;;;;;;5061432;28;20239;-69
2022/08/18 01:13:35;;;;;;;0.00;0.00;;;;;;;;;;5070786;28;20291;-68
2022/08/18 01:21:49;;;;;;;0.00;0.00;;;;;;;;;;5060447;28;20258;-68
2022/08/18 01:25:58;;;;;;;0.00;0.00;;;;;;;;;;5045173;28;20474;-68
2022/08/18 01:27:07;;;;;;;0.00;0.00;;;;;;;;;;5067785;28;20294;-68
2022/08/18 01:29:35;;;;;;;0.00;0.00;;;;;;;;;;5062963;28;20466;-69
2022/08/18 01:32:01;;;;;;;0.00;0.00;;;;;;;;;;5067190;28;20303;-69
2022/08/18 01:34:28;;;;;;;0.00;0.00;;;;;;;;;;5063399;28;20263;-69
2022/08/18 01:36:55;;;;;;;0.00;0.00;;;;;;;;;;5066630;28;20253;-69
2022/08/18 01:39:23;;;;;;;0.00;0.00;;;;;;;;;;5063906;28;20204;-69
2022/08/18 01:41:49;;;;;;;0.00;0.00;;;;;;;;;;5065820;28;20326;-68
2022/08/18 01:44:16;;;;;;;0.00;0.00;;;;;;;;;;5064477;28;20246;-69
2022/08/18 01:46:42;;;;;;;0.00;0.00;;;;;;;;;;5064655;28;20245;-68
2022/08/18 01:49:09;;;;;;;0.00;0.00;;;;;;;;;;5065574;28;20275;-69
2022/08/18 01:51:40;;;;;;;0.00;0.00;;;;;;;;;;5063764;28;20243;-69
2022/08/18 01:54:07;;;;;;;0.00;0.00;;;;;;;;;;5065634;28;20200;-69
2022/08/18 01:56:35;;;;;;;0.00;0.00;;;;;;;;;;5063295;28;20245;-68
2022/08/18 01:59:01;;;;;;;0.00;0.00;;;;;;;;;;5066132;28;20513;-69
2022/08/18 02:01:28;;;;;;;0.00;0.00;;;;;;;;;;5062691;28;20259;-68
2022/08/18 02:03:58;;;;;;;0.00;0.00;;;;;;;;;;5067402;28;20396;-68
2022/08/18 02:06:24;;;;;;;0.00;0.00;;;;;;;;;;5062660;28;20268;-69
2022/08/18 02:08:50;;;;;;;0.00;0.00;;;;;;;;;;5067651;28;20211;-68
2022/08/18 02:11:17;;;;;;;0.00;0.00;;;;;;;;;;5061461;28;20303;-69
2022/08/18 02:13:44;;;;;;;0.00;0.00;;;;;;;;;;5068270;28;20232;-68
2022/08/18 02:16:11;;;;;;;0.00;0.00;;;;;;;;;;5060299;28;20314;-69
2022/08/18 02:18:37;;;;;;;0.00;0.00;;;;;;;;;;5068946;28;20204;-69
2022/08/18 02:21:07;;;;;;;0.00;0.00;;;;;;;;;;5058987;28;20240;-68
2022/08/18 02:23:33;;;;;;;0.00;0.00;;;;;;;;;;5069249;28;20210;-68
2022/08/18 02:26:03;;;;;;;0.00;0.00;;;;;;;;;;5058555;28;20538;-69
2022/08/18 02:28:29;;;;;;;0.00;0.00;;;;;;;;;;5069476;28;20238;-69
2022/08/18 02:30:57;;;;;;;0.00;0.00;;;;;;;;;;5058334;28;20306;-69
2022/08/18 02:33:23;;;;;;;0.00;0.00;;;;;;;;;;5070690;28;20218;-68
2022/08/18 02:35:51;;;;;;;0.00;0.00;;;;;;;;;;5057158;28;20239;-68
2022/08/18 02:38:17;;;;;;;0.00;0.00;;;;;;;;;;5071642;28;20422;-69
2022/08/18 02:40:45;;;;;;;0.00;0.00;;;;;;;;;;5056821;28;20239;-68
2022/08/18 02:43:12;;;;;;;0.00;0.00;;;;;;;;;;5072280;28;20387;-69
2022/08/18 02:45:38;;;;;;;0.00;0.00;;;;;;;;;;5055727;28;20358;-69
2022/08/18 02:48:07;;;;;;;0.00;0.00;;;;;;;;;;5073123;28;20387;-69
2022/08/18 02:50:34;;;;;;;0.00;0.00;;;;;;;;;;5055508;28;20239;-68
2022/08/18 02:53:07;;;;;;;0.00;0.00;;;;;;;;;;5072745;28;20210;-67
2022/08/18 02:55:34;;;;;;;0.00;0.00;;;;;;;;;;5055466;28;20245;-69
2022/08/18 02:58:01;;;;;;;0.00;0.00;;;;;;;;;;5073696;28;20426;-68
2022/08/18 03:00:27;;;;;;;0.00;0.00;;;;;;;;;;5054892;28;20265;-69
2022/08/18 03:02:53;;;;;;;0.00;0.00;;;;;;;;;;5074566;28;20204;-69
2022/08/18 03:05:21;;;;;;;0.00;0.00;;;;;;;;;;5053719;28;20224;-69
2022/08/18 03:07:49;;;;;;;0.00;0.00;;;;;;;;;;5075404;28;20459;-68
2022/08/18 03:10:15;;;;;;;0.00;0.00;;;;;;;;;;5052968;28;20343;-68
2022/08/18 03:12:42;;;;;;;0.00;0.00;;;;;;;;;;5075723;28;20276;-67
2022/08/18 03:15:08;;;;;;;0.00;0.00;;;;;;;;;;5054765;28;20208;-68
2022/08/18 03:17:35;;;;;;;0.00;0.00;;;;;;;;;;5079995;28;20271;-68
2022/08/18 03:20:02;;;;;;;0.00;0.00;;;;;;;;;;5064732;28;20224;-68
2022/08/18 03:22:30;;;;;;;0.00;0.00;;;;;;;;;;5070207;28;20260;-68
2022/08/18 03:24:57;;;;;;;0.00;0.00;;;;;;;;;;5064572;28;20234;-68
2022/08/18 03:27:23;;;;;;;0.00;0.00;;;;;;;;;;5070115;28;20239;-68
2022/08/18 03:29:49;;;;;;;0.00;0.00;;;;;;;;;;5064723;28;20210;-68
2022/08/18 03:32:16;;;;;;;0.00;0.00;;;;;;;;;;5069929;28;20243;-68
2022/08/18 03:34:42;;;;;;;0.00;0.00;;;;;;;;;;5064577;28;20206;-68
2022/08/18 03:37:09;;;;;;;0.00;0.00;;;;;;;;;;5070073;28;20286;-69
2022/08/18 03:39:36;;;;;;;0.00;0.00;;;;;;;;;;5065219;28;20208;-69
2022/08/18 03:42:03;;;;;;;0.00;0.00;;;;;;;;;;5069902;28;20588;-67
2022/08/18 03:44:30;;;;;;;0.00;0.00;;;;;;;;;;5065328;28;20204;-68
2022/08/18 03:46:56;;;;;;;0.00;0.00;;;;;;;;;;5068881;28;20298;-68
2022/08/18 03:49:23;;;;;;;0.00;0.00;;;;;;;;;;5066101;28;20552;-67
2022/08/18 03:51:50;;;;;;;0.00;0.00;;;;;;;;;;5067742;28;20239;-69
2022/08/18 03:54:17;;;;;;;0.00;0.00;;;;;;;;;;5066678;28;20424;-68
2022/08/18 03:56:46;;;;;;;0.00;0.00;;;;;;;;;;5067005;28;20246;-68
2022/08/18 03:59:14;;;;;;;0.00;0.00;;;;;;;;;;5067126;28;20499;-69
2022/08/18 04:01:41;;;;;;;0.00;0.00;;;;;;;;;;5065985;28;20246;-69
2022/08/18 04:04:09;;;;;;;0.00;0.00;;;;;;;;;;5067520;28;20271;-69
2022/08/18 04:06:38;;;;;;;0.00;0.00;;;;;;;;;;5064889;28;20261;-68
2022/08/18 04:09:05;;;;;;;0.00;0.00;;;;;;;;;;5068284;28;20215;-69
2022/08/18 04:11:33;;;;;;;0.00;0.00;;;;;;;;;;5064913;28;20302;-69
2022/08/18 04:14:01;;;;;;;0.00;0.00;;;;;;;;;;5068274;28;20213;-68
2022/08/18 04:16:28;;;;;;;0.00;0.00;;;;;;;;;;5064133;28;20624;-69
2022/08/18 04:18:54;;;;;;;0.00;0.00;;;;;;;;;;5068859;28;20387;-69
2022/08/18 04:21:22;;;;;;;0.00;0.00;;;;;;;;;;5063059;28;20480;-69
2022/08/18 04:23:48;;;;;;;0.00;0.00;;;;;;;;;;5069721;28;20397;-68
2022/08/18 04:26:17;;;;;;;0.00;0.00;;;;;;;;;;5061343;28;20243;-68
2022/08/18 04:28:43;;;;;;;0.00;0.00;;;;;;;;;;5070808;28;20476;-68
2022/08/18 04:31:12;;;;;;;0.00;0.00;;;;;;;;;;5062199;28;20246;-68
2022/08/18 04:33:39;;;;;;;0.00;0.00;;;;;;;;;;5071263;28;20386;-68
2022/08/18 04:36:09;;;;;;;0.00;0.00;;;;;;;;;;5061734;28;20573;-69
2022/08/18 04:38:36;;;;;;;0.00;0.00;;;;;;;;;;5071154;28;20227;-69
2022/08/18 04:41:02;;;;;;;0.00;0.00;;;;;;;;;;5061140;28;20302;-68
2022/08/18 04:43:29;;;;;;;0.00;0.00;;;;;;;;;;5072055;28;20414;-71
2022/08/18 04:46:00;;;;;;;0.00;0.00;;;;;;;;;;5060059;28;20309;-69
2022/08/18 04:48:28;;;;;;;0.00;0.00;;;;;;;;;;5072595;28;20204;-69
2022/08/18 04:50:54;;;;;;;0.00;0.00;;;;;;;;;;5059678;28;20247;-69
2022/08/18 04:56:04;;;;;;;0.00;0.00;;;;;;;;;;5060902;28;20257;-69
2022/08/18 04:58:34;;;;;;;0.00;0.00;;;;;;;;;;5071104;28;20204;-68
2022/08/18 05:01:01;;;;;;;0.00;0.00;;;;;;;;;;5060626;28;20403;-68
2022/08/18 05:03:29;;;;;;;0.00;0.00;;;;;;;;;;5071095;28;20210;-69
2022/08/18 05:05:57;;;;;;;0.00;0.00;;;;;;;;;;5059326;28;20378;-68
2022/08/18 05:08:23;;;;;;;0.00;0.00;;;;;;;;;;5072041;28;20204;-68
2022/08/18 05:10:53;;;;;;;0.00;0.00;;;;;;;;;;5058578;28;20618;-68
2022/08/18 05:13:19;;;;;;;0.00;0.00;;;;;;;;;;5072334;28;20208;-69
2022/08/18 05:15:46;;;;;;;0.00;0.00;;;;;;;;;;5058149;28;20239;-69
2022/08/18 05:18:12;;;;;;;0.00;0.00;;;;;;;;;;5073349;28;20364;-69
2022/08/18 05:20:40;;;;;;;0.00;0.00;;;;;;;;;;5056704;28;20239;-70
2022/08/18 05:23:07;;;;;;;0.00;0.00;;;;;;;;;;5074198;28;20227;-68
2022/08/18 05:25:34;;;;;;;0.00;0.00;;;;;;;;;;5056558;28;20239;-69
2022/08/18 05:28:00;;;;;;;0.00;0.00;;;;;;;;;;5074760;28;20204;-69
2022/08/18 05:30:26;;;;;;;0.00;0.00;;;;;;;;;;5055480;28;20457;-70
2022/08/18 05:32:54;;;;;;;0.00;0.00;;;;;;;;;;5075032;28;20218;-69
2022/08/18 05:35:23;;;;;;;0.00;0.00;;;;;;;;;;5054490;28;20348;-70
2022/08/18 05:38:04;;;;;;;0.00;0.00;;;;;;;;;;5075525;28;20214;-68
2022/08/18 05:40:33;;;;;;;0.00;0.00;;;;;;;;;;5054519;28;20298;-69
2022/08/18 05:42:59;;;;;;;0.00;0.00;;;;;;;;;;5074451;28;20218;-67
2022/08/18 05:45:26;;;;;;;0.00;0.00;;;;;;;;;;5054931;28;20245;-69
2022/08/18 05:47:58;;;;;;;0.00;0.00;;;;;;;;;;5075203;28;20391;-68
2022/08/18 05:50:25;;;;;;;0.00;0.00;;;;;;;;;;5055041;28;20931;-68
2022/08/18 05:52:53;;;;;;;0.00;0.00;;;;;;;;;;5075367;28;20204;-70
2022/08/18 05:58:12;;;;;;;0.05;0.05;;;;;;;;;;5073504;28;20318;-69
2022/08/18 06:00:39;;;;;;;0.00;0.00;;;;;;;;;;5056395;28;20239;-70
2022/08/18 06:03:08;;;;;;;0.00;0.00;;;;;;;;;;5073384;28;20196;-69
2022/08/18 06:05:35;;;;;;;0.00;0.00;;;;;;;;;;5056083;28;20309;-69
2022/08/18 06:08:03;;;;;;;0.00;0.00;;;;;;;;;;5073402;28;20218;-69
2022/08/18 06:10:30;;;;;;;0.00;0.00;;;;;;;;;;5055114;28;20473;-69
2022/08/18 06:12:58;;;;;;;0.00;0.00;;;;;;;;;;5074204;28;20204;-70
2022/08/18 06:15:31;;;;;;;0.00;0.00;;;;;;;;;;5054325;28;20247;-69
2022/08/18 06:18:12;;;;;;;0.00;0.00;;;;;;;;;;5074127;28;20208;-68
2022/08/18 06:20:44;;;;;;;0.00;0.00;;;;;;;;;;5056278;28;20468;-70
2022/08/18 06:23:20;;;;;;;0.00;0.00;;;;;;;;;;5072121;28;20204;-70
2022/08/18 06:25:54;;;;;;;0.00;0.00;;;;;;;;;;5057460;28;20516;-69
2022/08/18 06:28:20;;;;;;;0.00;0.00;;;;;;;;;;5071229;28;20452;-70
2022/08/18 06:30:50;;;;;;;0.00;0.00;;;;;;;;;;5057152;28;20369;-71
2022/08/18 06:33:25;;;;;;;0.00;0.00;;;;;;;;;;5071328;28;20215;-69
2022/08/18 06:35:54;;;;;;;0.00;0.00;;;;;;;;;;5057796;28;20273;-69
2022/08/18 06:38:40;;;;;;;0.00;0.00;;;;;;;;;;5070389;28;20211;-70
2022/08/18 06:41:11;;;;;;;0.00;0.00;;;;;;;;;;5059555;28;20239;-69
2022/08/18 06:43:38;;;;;;;0.00;0.00;;;;;;;;;;5068737;28;20518;-69
2022/08/18 06:46:08;;;;;;;0.00;0.00;;;;;;;;;;5059136;28;20243;-69
2022/08/18 06:48:37;;;;;;;0.00;0.00;;;;;;;;;;5069693;28;20246;-69
2022/08/18 06:51:06;;;;;;;0.00;0.00;;;;;;;;;;5063238;28;20326;-70
2022/08/18 06:53:52;;;;;;;0.00;0.00;;;;;;;;;;5073154;28;20399;-69
2022/08/18 06:56:23;;;;;;;0.00;0.00;;;;;;;;;;5065049;28;20235;-69
2022/08/18 06:58:51;;;;;;;0.00;0.00;;;;;;;;;;5070986;28;20242;-70
2022/08/18 07:01:19;;;;;;;0.00;0.00;;;;;;;;;;5064791;28;20262;-69
2022/08/18 07:03:47;;;;;;;0.00;0.00;;;;;;;;;;5071365;28;20214;-70
2022/08/18 07:06:24;;;;;;;0.00;0.00;;;;;;;;;;5063898;28;20238;-69
2022/08/18 07:08:52;;;;;;;0.00;0.00;;;;;;;;;;5070723;28;20200;-69
2022/08/18 07:11:20;;;;;;;0.08;0.08;;;;;;;;;;5064787;28;20467;-69
2022/08/18 07:13:47;;;;;;;0.00;0.00;;;;;;;;;;5070994;28;20465;-69
2022/08/18 07:16:17;;;;;;;0.00;0.00;;;;;;;;;;5064058;28;20238;-68
2022/08/18 07:18:45;;;;;;;0.00;0.00;;;;;;;;;;5071408;28;20214;-68
2022/08/18 07:21:24;;;;;;;0.00;0.00;;;;;;;;;;5063481;28;20239;-68
2022/08/18 07:23:58;;;;;;;0.00;0.00;;;;;;;;;;5070878;28;20204;-68
2022/08/18 07:26:24;;;;;;;0.00;0.00;;;;;;;;;;5065071;28;20237;-69
2022/08/18 07:28:52;;;;;;;0.00;0.00;;;;;;;;;;5070206;28;20522;-69
2022/08/18 07:31:33;;;;;;;0.00;0.00;;;;;;;;;;5064266;28;20239;-69
2022/08/18 07:34:03;;;;;;;0.00;0.00;;;;;;;;;;5069170;28;20273;-68
2022/08/18 07:36:33;;;;;;;0.00;0.00;;;;;;;;;;5065350;28;20235;-68
2022/08/18 07:39:02;;;;;;;0.00;0.00;;;;;;;;;;5068958;28;20246;-70
2022/08/18 07:41:32;;;;;;;0.00;0.00;;;;;;;;;;5066646;28;20245;-76
2022/08/18 07:44:05;;;;;;;0.00;0.00;;;;;;;;;;5067324;28;20208;-77
2022/08/18 07:46:33;;;;;;;0.00;0.00;;;;;;;;;;5070751;28;20255;-76
2022/08/18 07:49:01;;;;;;;0.00;0.00;;;;;;;;;;5071517;28;20204;-76
2022/08/18 07:51:31;;;;;;;0.00;0.00;;;;;;;;;;5068496;28;20302;-77
2022/08/18 07:54:00;;;;;;;0.00;0.00;;;;;;;;;;5071945;28;20304;-76
2022/08/18 07:56:32;;;;;;;0.00;0.00;;;;;;;;;;5066703;28;20449;-77
2022/08/18 07:59:01;;;;;;;0.00;0.00;;;;;;;;;;5070038;28;20227;-76
2022/08/18 08:01:31;;;;;;;0.00;0.00;;;;;;;;;;5065025;28;20566;-75
2022/08/18 08:04:00;;;;;;;0.00;0.00;;;;;;;;;;5070155;28;20215;-76
2022/08/18 08:06:30;;;;;;;0.00;0.00;;;;;;;;;;5064900;28;20258;-77
2022/08/18 08:09:01;;;;;;;0.00;0.00;;;;;;;;;;5069411;28;20246;-77
2022/08/18 08:11:43;;;;;;;0.00;0.00;;;;;;;;;;5064878;28;20247;-78
2022/08/18 08:14:17;;;;;;;0.00;0.00;;;;;;;;;;5067534;28;20208;-77
2022/08/18 08:16:46;;;;;;;0.00;0.00;;;;;;;;;;5066813;28;20442;-77
2022/08/18 08:19:25;;;;;;;0.00;0.00;;;;;;;;;;5066569;28;20212;-77
2022/08/18 08:21:58;;;;;;;0.00;0.00;;;;;;;;;;5067782;28;20400;-77
2022/08/18 08:24:27;;;;;;;0.00;0.00;;;;;;;;;;5065902;28;20208;-77
2022/08/18 08:26:57;;;;;;;0.00;0.00;;;;;;;;;;5068005;28;20592;-77
2022/08/18 08:29:29;;;;;;;0.00;0.00;;;;;;;;;;5065627;28;20204;-77
2022/08/18 08:31:57;;;;;;;0.00;0.00;;;;;;;;;;5068087;28;20255;-77
2022/08/18 08:34:26;;;;;;;0.00;0.00;;;;;;;;;;5065240;28;20210;-76
2022/08/18 08:36:58;;;;;;;0.00;0.00;;;;;;;;;;5067526;28;20239;-77
2022/08/18 08:39:27;;;;;;;0.00;0.00;;;;;;;;;;5065173;28;20232;-78
2022/08/18 08:41:54;;;;;;;0.00;0.00;;;;;;;;;;5067466;28;20247;-77
2022/08/18 08:44:24;;;;;;;0.00;0.00;;;;;;;;;;5065451;28;20204;-76
2022/08/18 08:46:55;;;;;;;0.00;0.00;;;;;;;;;;5067271;28;20231;-77
2022/08/18 08:49:28;;;;;;;0.00;0.00;;;;;;;;;;5065305;28;20208;-77
2022/08/18 08:51:58;;;;;;;0.00;0.00;;;;;;;;;;5067579;28;20266;-77
2022/08/18 08:54:27;;;;;;;0.00;0.00;;;;;;;;;;5064993;28;20275;-77
2022/08/18 08:56:55;;;;;;;0.00;0.00;;;;;;;;;;5067099;28;20306;-77
2022/08/18 08:59:23;;;;;;;0.00;0.00;;;;;;;;;;5065391;28;20321;-77
2022/08/18 09:01:55;;;;;;;0.00;0.00;;;;;;;;;;5066766;28;20550;-76
2022/08/18 09:04:27;;;;;;;0.00;0.00;;;;;;;;;;5065054;28;20275;-77
2022/08/18 09:07:01;;;;;;;0.00;0.00;;;;;;;;;;5067205;28;20585;-78
2022/08/18 09:09:41;;;;;;;0.00;0.00;;;;;;;;;;5064367;28;20396;-78
2022/08/18 09:12:25;;;;;;;0.00;0.00;;;;;;;;;;5068051;28;20246;-77
2022/08/18 09:15:01;;;;;;;0.00;0.00;;;;;;;;;;5063798;28;20226;-78
2022/08/18 09:17:42;;;;;;;0.00;0.00;;;;;;;;;;5068592;28;20239;-77
2022/08/18 09:20:26;;;;;;;0.00;0.00;;;;;;;;;;5048649;28;20230;-77
2022/08/18 09:22:56;;;;;;;0.00;0.00;;;;;;;;;;5075861;28;20212;-77
2022/08/18 09:25:33;;;;;;;0.00;0.00;;;;;;;;;;5055378;28;20205;-78
2022/08/18 09:28:08;;;;;;;0.00;0.00;;;;;;;;;;5074957;28;20304;-76
2022/08/18 09:30:50;;;;;;;0.00;0.00;;;;;;;;;;5056608;28;20246;-77
2022/08/18 09:33:19;;;;;;;0.00;0.00;;;;;;;;;;5056273;28;20222;-77
2022/08/18 09:35:53;;;;;;;0.00;0.00;;;;;;;;;;5057874;28;20239;-77
2022/08/18 09:44:09;;;;;;;0.00;0.00;;;;;;;;;;5068090;28;20231;-76
2022/08/18 09:46:50;;;;;;;0.00;0.00;;;;;;;;;;5064112;28;20243;-77
2022/08/18 09:49:32;;;;;;;0.00;0.00;;;;;;;;;;5061957;28;20210;-77
2022/08/18 09:52:00;;;;;;;0.00;0.00;;;;;;;;;;5066065;28;20235;-76
2022/08/18 09:54:29;;;;;;;0.00;0.00;;;;;;;;;;5063545;28;20230;-77
2022/08/18 09:57:07;;;;;;;0.00;0.00;;;;;;;;;;5066403;28;20270;-77
2022/08/18 09:59:57;;;;;;;0.00;0.00;;;;;;;;;;5062755;28;20235;-78
2022/08/18 10:02:41;;;;;;;0.00;0.00;;;;;;;;;;5067448;28;20258;-77
2022/08/18 10:05:25;;;;;;;0.00;0.00;;;;;;;;;;5052306;28;20342;-77
2022/08/18 10:07:54;;;;;;;0.00;0.00;;;;;;;;;;5074844;28;20228;-77
2022/08/18 10:10:24;;;;;;;0.00;0.00;;;;;;;;;;5054276;28;20406;-77
2022/08/18 10:12:58;;;;;;;0.00;0.00;;;;;;;;;;5075002;28;20259;-77
2022/08/18 10:15:31;;;;;;;0.00;0.00;;;;;;;;;;5054550;28;20273;-77
2022/08/18 10:18:02;;;;;;;0.00;0.00;;;;;;;;;;5073809;28;20201;-76
2022/08/18 10:20:37;;;;;;;0.00;0.00;;;;;;;;;;5054296;28;20302;-78
2022/08/18 10:23:04;;;;;;;0.00;0.00;;;;;;;;;;5073604;28;20447;-76
2022/08/18 10:25:37;;;;;;;0.00;0.00;;;;;;;;;;5054982;28;20239;-77
2022/08/18 10:28:05;;;;;;;0.00;0.00;;;;;;;;;;5073541;28;20231;-78
2022/08/18 10:30:46;;;;;;;0.00;0.00;;;;;;;;;;5055649;28;20257;-77
2022/08/18 10:33:33;;;;;;;0.00;0.00;;;;;;;;;;5071960;28;20243;-77
2022/08/18 10:36:00;;;;;;;0.00;0.00;;;;;;;;;;5059076;28;20239;-78
2022/08/18 10:38:40;;;;;;;0.00;0.00;;;;;;;;;;5070616;28;20215;-77
2022/08/18 10:41:12;;;;;;;0.00;0.00;;;;;;;;;;5060063;28;20281;-77
2022/08/18 10:43:41;;;;;;;0.00;0.00;;;;;;;;;;5068950;28;20283;-77
2022/08/18 10:46:15;;;;;;;0.00;0.00;;;;;;;;;;5059986;28;20273;-77
2022/08/18 10:48:41;;;;;;;0.00;0.00;;;;;;;;;;5069439;28;20228;-78
2022/08/18 10:51:14;;;;;;;0.00;0.00;;;;;;;;;;5060891;28;20380;-78
2022/08/18 10:53:45;;;;;;;0.00;0.00;;;;;;;;;;5069542;28;20240;-78
2022/08/18 10:56:24;;;;;;;0.00;0.00;;;;;;;;;;5061120;28;20302;-78
2022/08/18 10:59:00;;;;;;;0.00;0.00;;;;;;;;;;5068153;28;20207;-77
2022/08/18 11:01:32;;;;;;;0.00;0.00;;;;;;;;;;5062958;28;20258;-78
2022/08/18 11:04:06;;;;;;;0.00;0.00;;;;;;;;;;5067069;28;20375;-78
2022/08/18 11:06:37;;;;;;;0.00;0.00;;;;;;;;;;5063636;28;20276;-78
2022/08/18 11:09:04;;;;;;;0.00;0.00;;;;;;;;;;5066600;28;20203;-76
2022/08/18 11:11:34;;;;;;;0.00;0.00;;;;;;;;;;5062868;28;20293;-75
2022/08/18 11:14:06;;;;;;;0.00;0.00;;;;;;;;;;5067815;28;20196;-79
2022/08/18 11:16:39;;;;;;;0.00;0.00;;;;;;;;;;5063814;28;20446;-77
2022/08/18 11:19:08;;;;;;;0.00;0.00;;;;;;;;;;5065844;28;20215;-76
2022/08/18 11:21:38;;;;;;;0.00;0.00;;;;;;;;;;5063831;28;20243;-77
2022/08/18 11:24:06;;;;;;;0.00;0.00;;;;;;;;;;5066029;28;20352;-76
2022/08/18 11:26:35;;;;;;;0.00;0.00;;;;;;;;;;5063380;28;20239;-77
2022/08/18 11:29:14;;;;;;;0.00;0.00;;;;;;;;;;5066316;28;20248;-78
2022/08/18 11:31:41;;;;;;;0.00;0.00;;;;;;;;;;5051427;28;20236;-76
2022/08/18 11:34:11;;;;;;;0.00;0.00;;;;;;;;;;5062141;28;20227;-76
2022/08/18 11:36:38;;;;;;;0.00;0.00;;;;;;;;;;5067765;28;20257;-76
2022/08/18 11:39:08;;;;;;;0.00;0.00;;;;;;;;;;5069589;28;20391;-76
2022/08/18 11:41:37;;;;;;;0.00;0.00;;;;;;;;;;5067476;28;20255;-77
2022/08/18 11:44:06;;;;;;;0.00;0.00;;;;;;;;;;5069876;28;20208;-76
2022/08/18 11:46:39;;;;;;;0.00;0.00;;;;;;;;;;5066962;28;20250;-76
2022/08/18 11:49:13;;;;;;;0.00;0.00;;;;;;;;;;5069542;28;20223;-75
2022/08/18 11:51:52;;;;;;;0.00;0.00;;;;;;;;;;5067787;28;20244;-76
2022/08/18 11:54:21;;;;;;;0.00;0.00;;;;;;;;;;5067922;28;20231;-76
2022/08/18 11:56:49;;;;;;;0.00;0.00;;;;;;;;;;5067804;28;20481;-76
2022/08/18 11:59:31;;;;;;;0.00;0.00;;;;;;;;;;5068133;28;20371;-76
2022/08/18 12:01:58;;;;;;;0.00;0.00;;;;;;;;;;5069430;28;20310;-76
2022/08/18 12:04:29;;;;;;;0.00;0.00;;;;;;;;;;5067296;28;20215;-76
2022/08/18 12:07:00;;;;;;;0.00;0.00;;;;;;;;;;5069433;28;20239;-77
2022/08/18 12:09:31;;;;;;;0.00;0.00;;;;;;;;;;5066334;28;20209;-75
2022/08/18 12:12:00;;;;;;;0.00;0.00;;;;;;;;;;5069785;28;20251;-76
2022/08/18 12:14:27;;;;;;;0.00;0.00;;;;;;;;;;5066324;28;20216;-76
2022/08/18 12:16:54;;;;;;;0.00;0.00;;;;;;;;;;5069263;28;20258;-77
2022/08/18 12:19:21;;;;;;;0.00;0.00;;;;;;;;;;5066964;28;20272;-76
2022/08/18 12:21:50;;;;;;;0.00;0.00;;;;;;;;;;5068203;28;20303;-77
2022/08/18 12:24:19;;;;;;;0.00;0.00;;;;;;;;;;5066896;28;20215;-76
2022/08/18 12:26:45;;;;;;;0.00;0.00;;;;;;;;;;5067812;28;20269;-77
2022/08/18 12:29:13;;;;;;;0.00;0.00;;;;;;;;;;5067624;28;20227;-77
2022/08/18 12:31:40;;;;;;;0.00;0.00;;;;;;;;;;5067047;28;20295;-77
2022/08/18 12:34:06;;;;;;;0.00;0.00;;;;;;;;;;5068344;28;20243;-77
2022/08/18 12:36:33;;;;;;;0.00;0.00;;;;;;;;;;5066115;28;20554;-76
2022/08/18 12:38:59;;;;;;;0.00;0.00;;;;;;;;;;5069257;28;20271;-76
2022/08/18 12:41:26;;;;;;;0.00;0.00;;;;;;;;;;5065021;28;20239;-75
2022/08/18 12:43:53;;;;;;;0.00;0.00;;;;;;;;;;5069968;28;20235;-76
2022/08/18 12:46:21;;;;;;;0.00;0.00;;;;;;;;;;5063076;28;20305;-76
2022/08/18 12:48:47;;;;;;;0.00;0.00;;;;;;;;;;5070535;28;20366;-76
2022/08/18 12:51:13;;;;;;;0.00;0.00;;;;;;;;;;5062937;28;20259;-76
2022/08/18 12:53:40;;;;;;;0.00;0.00;;;;;;;;;;5071436;28;20204;-76
2022/08/18 12:56:07;;;;;;;0.00;0.00;;;;;;;;;;5062403;28;20267;-76
2022/08/18 12:58:34;;;;;;;0.00;0.00;;;;;;;;;;5071886;28;20200;-77
2022/08/18 13:01:00;;;;;;;0.00;0.00;;;;;;;;;;5061353;28;20435;-76
2022/08/18 13:03:28;;;;;;;0.00;0.00;;;;;;;;;;5072765;28;20243;-76
2022/08/18 13:05:54;;;;;;;0.00;0.00;;;;;;;;;;5060676;28;20235;-76
2022/08/18 13:08:21;;;;;;;0.00;0.00;;;;;;;;;;5073219;28;20232;-77
2022/08/18 13:10:49;;;;;;;0.00;0.00;;;;;;;;;;5059468;28;20243;-77
2022/08/18 13:13:15;;;;;;;0.00;0.00;;;;;;;;;;5074221;28;20239;-76
2022/08/18 13:15:42;;;;;;;0.00;0.00;;;;;;;;;;5058477;28;20251;-76
2022/08/18 13:18:08;;;;;;;0.00;0.00;;;;;;;;;;5074788;28;20235;-76
2022/08/18 13:20:36;;;;;;;0.00;0.00;;;;;;;;;;5057410;28;20243;-77
2022/08/18 13:23:03;;;;;;;0.00;0.00;;;;;;;;;;5075554;28;20219;-76
2022/08/18 13:25:29;;;;;;;0.00;0.00;;;;;;;;;;5056775;28;20435;-75
2022/08/18 13:27:56;;;;;;;0.00;0.00;;;;;;;;;;5076275;28;20236;-76
2022/08/18 13:30:23;;;;;;;0.00;0.00;;;;;;;;;;5055658;28;20211;-76
2022/08/18 13:32:50;;;;;;;0.00;0.00;;;;;;;;;;5076882;28;20402;-76
2022/08/18 13:35:16;;;;;;;0.00;0.00;;;;;;;;;;5055305;28;20235;-75
2022/08/18 13:37:44;;;;;;;0.00;0.00;;;;;;;;;;5077625;28;20391;-76
2022/08/18 13:40:12;;;;;;;0.00;0.00;;;;;;;;;;5054385;28;20435;-75
2022/08/18 13:42:44;;;;;;;0.00;0.00;;;;;;;;;;5078302;28;20412;-75
2022/08/18 13:45:11;;;;;;;0.00;0.00;;;;;;;;;;5054073;28;20204;-76
2022/08/18 13:47:38;;;;;;;0.00;0.00;;;;;;;;;;5077999;28;20203;-76
2022/08/18 13:50:05;;;;;;;0.00;0.00;;;;;;;;;;5062917;28;20322;-75
2022/08/18 13:52:31;;;;;;;0.00;0.00;;;;;;;;;;5078306;28;20263;-76
2022/08/18 13:54:59;;;;;;;0.00;0.00;;;;;;;;;;5063353;28;20558;-76
2022/08/18 13:57:25;;;;;;;0.00;0.00;;;;;;;;;;5068531;28;20383;-77
2022/08/18 13:59:52;;;;;;;0.00;0.00;;;;;;;;;;5063436;28;20238;-75
2022/08/18 14:02:18;;;;;;;0.00;0.00;;;;;;;;;;5068662;28;20307;-74
2022/08/18 14:04:44;;;;;;;0.00;0.00;;;;;;;;;;5063280;28;20246;-76
2022/08/18 14:07:13;;;;;;;0.00;0.00;;;;;;;;;;5068698;28;20254;-76
2022/08/18 14:09:39;;;;;;;0.00;0.00;;;;;;;;;;5062949;28;20224;-76
2022/08/18 14:12:09;;;;;;;0.00;0.00;;;;;;;;;;5068727;28;20246;-76
2022/08/18 14:14:35;;;;;;;0.00;0.00;;;;;;;;;;5063572;28;20538;-76
2022/08/18 14:17:02;;;;;;;0.00;0.00;;;;;;;;;;5067666;28;20235;-77
2022/08/18 14:27:42;;;;;;;0.00;0.00;;;;;;;;;;5062772;28;20226;-76
2022/08/18 14:30:10;;;;;;;0.00;0.00;;;;;;;;;;5052976;28;20258;-75
2022/08/18 14:32:36;;;;;;;0.00;0.00;;;;;;;;;;5077714;28;20222;-76
2022/08/18 14:35:05;;;;;;;0.00;0.00;;;;;;;;;;5062699;28;20234;-76
2022/08/18 14:37:32;;;;;;;0.00;0.00;;;;;;;;;;5051369;28;21164;-76
2022/08/18 14:39:59;;;;;;;0.00;0.00;;;;;;;;;;5062473;28;20200;-78
2022/08/18 14:42:26;;;;;;;0.00;0.00;;;;;;;;;;5068045;28;20303;-76
2022/08/18 14:44:54;;;;;;;0.00;0.00;;;;;;;;;;5062687;28;20201;-76
2022/08/18 14:47:21;;;;;;;0.00;0.00;;;;;;;;;;5067620;28;20273;-75
2022/08/18 14:49:47;;;;;;;0.00;0.00;;;;;;;;;;5061679;28;20287;-78
2022/08/18 14:52:14;;;;;;;0.00;0.00;;;;;;;;;;5067108;28;20258;-76
2022/08/18 14:54:40;;;;;;;0.00;0.00;;;;;;;;;;5061736;28;20231;-75
2022/08/18 14:57:10;;;;;;;0.00;0.00;;;;;;;;;;5067097;28;20554;-75
2022/08/18 14:59:37;;;;;;;0.00;0.00;;;;;;;;;;5061556;28;20189;-77
2022/08/18 15:02:05;;;;;;;0.00;0.00;;;;;;;;;;5065589;28;20243;-76
2022/08/18 15:04:32;;;;;;;0.00;0.00;;;;;;;;;;5062259;28;20230;-76
2022/08/18 15:06:58;;;;;;;0.00;0.00;;;;;;;;;;5065887;28;20273;-76
2022/08/18 15:09:25;;;;;;;0.00;0.00;;;;;;;;;;5062896;28;20228;-77
2022/08/18 15:11:52;;;;;;;0.00;0.00;;;;;;;;;;5068941;28;20432;-77
2022/08/18 15:14:19;;;;;;;0.00;0.00;;;;;;;;;;5067430;28;20253;-76
2022/08/18 15:16:46;;;;;;;0.00;0.00;;;;;;;;;;5068077;28;20255;-76
2022/08/18 15:19:13;;;;;;;0.00;0.00;;;;;;;;;;5068062;28;20301;-77
2022/08/18 15:27:08;;;;;;;0.00;0.00;;;;;;;;;;5070658;28;20393;-76